createdAt,value
2019-06-08T00:00:02.410Z,57.12
2019-06-08T00:00:38.457Z,57.04
2019-06-08T00:01:16.436Z,57.24
2019-06-08T00:01:52.795Z,57.11
2019-06-08T00:02:28.569Z,57.07
2019-06-08T00:03:05.162Z,56.92
2019-06-08T00:03:42.621Z,56.53
2019-06-08T00:04:18.592Z,56.84
2019-06-08T00:04:54.779Z,56.81
2019-06-08T00:05:32.281Z,56.85
2019-06-08T00:06:07.747Z,56.85
2019-06-08T00:06:43.901Z,57.19
2019-06-08T00:07:20.884Z,57.10
2019-06-08T00:07:56.809Z,57.42
2019-06-08T00:08:32.879Z,56.81
2019-06-08T00:09:09.936Z,56.87
2019-06-08T00:09:45.883Z,57.13
2019-06-08T00:10:25.540Z,56.89
2019-06-08T00:10:59.969Z,57.07
2019-06-08T00:11:36.424Z,57.13
2019-06-08T00:12:12.995Z,57.18
2019-06-08T00:12:50.131Z,57.13
2019-06-08T00:13:26.532Z,57.17
2019-06-08T00:14:02.644Z,57.42
2019-06-08T00:14:39.282Z,57.42
2019-06-08T00:15:16.067Z,57.26
2019-06-08T00:15:52.440Z,57.24
2019-06-08T00:16:29.081Z,57.48
2019-06-08T00:17:04.883Z,57.62
2019-06-08T00:17:40.944Z,57.67
2019-06-08T00:18:17.640Z,57.38
2019-06-08T00:18:53.953Z,57.46
2019-06-08T00:19:29.979Z,57.66
2019-06-08T00:20:07.077Z,57.87
2019-06-08T00:20:43.535Z,57.98
2019-06-08T00:21:20.108Z,57.66
2019-06-08T00:21:57.437Z,57.97
2019-06-08T00:22:33.942Z,57.91
2019-06-08T00:23:10.587Z,57.97
2019-06-08T00:23:47.361Z,58.23
2019-06-08T00:24:24.107Z,58.10
2019-06-08T00:25:00.243Z,58.25
2019-06-08T00:25:36.313Z,58.33
2019-06-08T00:26:12.427Z,58.55
2019-06-08T00:26:49.455Z,58.61
2019-06-08T00:27:26.093Z,58.63
2019-06-08T00:28:01.574Z,58.72
2019-06-08T00:28:38.223Z,58.79
2019-06-08T00:29:16.251Z,58.77
2019-06-08T00:29:51.906Z,58.83
2019-06-08T00:30:28.842Z,58.57
2019-06-08T00:31:05.760Z,58.82
2019-06-08T00:31:41.868Z,58.69
2019-06-08T00:32:18.492Z,58.67
2019-06-08T00:32:54.773Z,58.71
2019-06-08T00:33:31.208Z,58.87
2019-06-08T00:34:07.645Z,58.83
2019-06-08T00:34:44.102Z,59.00
2019-06-08T00:35:20.804Z,59.11
2019-06-08T00:35:57.363Z,59.16
2019-06-08T00:36:33.387Z,59.20
2019-06-08T00:37:08.853Z,59.33
2019-06-08T00:37:45.476Z,59.18
2019-06-08T00:38:23.022Z,59.02
2019-06-08T00:38:58.725Z,59.14
2019-06-08T00:39:35.142Z,59.02
2019-06-08T00:40:11.988Z,59.16
2019-06-08T00:40:47.519Z,58.99
2019-06-08T00:41:25.410Z,59.14
2019-06-08T00:42:02.312Z,59.24
2019-06-08T00:42:38.124Z,58.99
2019-06-08T00:43:15.292Z,58.82
2019-06-08T00:43:51.392Z,59.27
2019-06-08T00:44:27.823Z,59.34
2019-06-08T00:45:04.314Z,59.37
2019-06-08T00:45:40.638Z,59.37
2019-06-08T00:46:17.231Z,59.45
2019-06-08T00:46:54.792Z,59.36
2019-06-08T00:47:47.158Z,59.47
2019-06-08T00:48:09.074Z,59.78
2019-06-08T00:48:45.426Z,59.77
2019-06-08T00:49:22.700Z,59.61
2019-06-08T00:49:58.300Z,59.66
2019-06-08T00:50:34.357Z,59.64
2019-06-08T00:51:10.829Z,59.99
2019-06-08T00:51:47.850Z,60.13
2019-06-08T00:52:25.561Z,60.00
2019-06-08T00:53:01.730Z,60.02
2019-06-08T00:53:37.158Z,59.89
2019-06-08T00:54:13.302Z,59.51
2019-06-08T00:54:50.122Z,59.32
2019-06-08T00:55:25.979Z,59.66
2019-06-08T00:56:02.724Z,59.54
2019-06-08T00:56:38.755Z,59.58
2019-06-08T00:57:15.198Z,59.56
2019-06-08T00:57:51.538Z,59.73
2019-06-08T00:58:27.887Z,59.43
2019-06-08T00:59:03.595Z,59.34
2019-06-08T00:59:39.655Z,59.40
2019-06-08T01:00:18.203Z,59.36
2019-06-08T01:00:53.907Z,59.46
2019-06-08T01:01:30.922Z,59.55
2019-06-08T01:02:07.946Z,59.30
2019-06-08T01:02:43.972Z,59.51
2019-06-08T01:03:19.998Z,59.69
2019-06-08T01:03:56.741Z,59.84
2019-06-08T01:04:33.092Z,59.50
2019-06-08T01:05:10.001Z,59.56
2019-06-08T01:05:46.304Z,59.49
2019-06-08T01:06:22.998Z,59.37
2019-06-08T01:06:59.726Z,59.39
2019-06-08T01:07:36.100Z,59.37
2019-06-08T01:08:11.590Z,59.28
2019-06-08T01:08:47.736Z,59.10
2019-06-08T01:09:24.395Z,59.26
2019-06-08T01:10:00.526Z,59.29
2019-06-08T01:10:37.127Z,59.37
2019-06-08T01:11:13.749Z,59.22
2019-06-08T01:11:49.793Z,59.25
2019-06-08T01:12:26.911Z,59.27
2019-06-08T01:13:03.585Z,59.21
2019-06-08T01:13:39.642Z,59.06
2019-06-08T01:14:16.014Z,58.84
2019-06-08T01:14:52.065Z,58.95
2019-06-08T01:15:32.703Z,58.90
2019-06-08T01:16:05.976Z,58.80
2019-06-08T01:16:42.067Z,58.54
2019-06-08T01:17:19.082Z,58.72
2019-06-08T01:18:02.597Z,58.54
2019-06-08T01:18:34.281Z,58.54
2019-06-08T01:19:09.730Z,58.68
2019-06-08T01:19:47.737Z,58.77
2019-06-08T01:20:23.804Z,58.68
2019-06-08T01:20:59.623Z,58.54
2019-06-08T01:21:35.778Z,58.33
2019-06-08T01:22:12.436Z,58.11
2019-06-08T01:22:47.887Z,58.19
2019-06-08T01:23:25.605Z,58.03
2019-06-08T01:24:01.691Z,58.31
2019-06-08T01:24:37.521Z,58.60
2019-06-08T01:25:13.930Z,57.99
2019-06-08T01:25:50.338Z,57.79
2019-06-08T01:26:28.050Z,57.65
2019-06-08T01:27:04.319Z,57.64
2019-06-08T01:27:41.281Z,57.55
2019-06-08T01:28:16.727Z,57.31
2019-06-08T01:28:53.408Z,57.57
2019-06-08T01:29:30.251Z,57.58
2019-06-08T01:30:06.991Z,57.52
2019-06-08T01:30:43.615Z,57.37
2019-06-08T01:31:20.509Z,57.23
2019-06-08T01:31:56.039Z,57.22
2019-06-08T01:32:32.083Z,57.35
2019-06-08T01:33:08.466Z,57.40
2019-06-08T01:33:43.895Z,57.35
2019-06-08T01:34:20.643Z,57.37
2019-06-08T01:34:57.220Z,57.32
2019-06-08T01:35:33.576Z,57.30
2019-06-08T01:36:10.180Z,57.56
2019-06-08T01:36:46.793Z,57.49
2019-06-08T01:37:23.017Z,57.54
2019-06-08T01:37:59.951Z,57.35
2019-06-08T01:38:36.974Z,57.57
2019-06-08T01:39:12.436Z,57.53
2019-06-08T01:39:48.458Z,57.85
2019-06-08T01:40:25.375Z,57.89
2019-06-08T01:41:00.848Z,58.26
2019-06-08T01:41:37.501Z,58.18
2019-06-08T01:42:14.820Z,58.04
2019-06-08T01:42:50.273Z,57.81
2019-06-08T01:43:27.696Z,57.91
2019-06-08T01:44:04.509Z,57.95
2019-06-08T01:44:39.997Z,58.17
2019-06-08T01:45:32.396Z,58.13
2019-06-08T01:46:08.954Z,58.02
2019-06-08T01:46:44.390Z,58.29
2019-06-08T01:47:22.038Z,58.23
2019-06-08T01:47:59.426Z,58.09
2019-06-08T01:48:35.451Z,58.46
2019-06-08T01:49:12.110Z,58.50
2019-06-08T01:49:48.748Z,58.20
2019-06-08T01:50:24.849Z,58.17
2019-06-08T01:51:01.542Z,58.59
2019-06-08T01:51:38.199Z,58.65
2019-06-08T01:52:13.618Z,58.73
2019-06-08T01:52:49.638Z,58.67
2019-06-08T01:53:26.848Z,58.47
2019-06-08T01:54:03.223Z,58.62
2019-06-08T01:54:39.350Z,58.54
2019-06-08T01:55:15.615Z,58.13
2019-06-08T01:55:52.627Z,58.30
2019-06-08T01:56:29.314Z,58.21
2019-06-08T01:57:05.368Z,58.00
2019-06-08T01:57:41.009Z,58.03
2019-06-08T01:58:17.046Z,58.24
2019-06-08T01:58:53.131Z,58.17
2019-06-08T01:59:29.846Z,58.14
2019-06-08T02:00:29.123Z,58.16
2019-06-08T02:00:45.621Z,58.17
2019-06-08T02:01:21.168Z,58.38
2019-06-08T02:01:57.856Z,58.49
2019-06-08T02:02:34.475Z,58.49
2019-06-08T02:03:10.256Z,58.05
2019-06-08T02:03:46.263Z,58.30
2019-06-08T02:04:23.912Z,58.33
2019-06-08T02:05:00.148Z,58.42
2019-06-08T02:05:36.800Z,58.49
2019-06-08T02:06:13.085Z,58.64
2019-06-08T02:06:48.579Z,58.91
2019-06-08T02:07:26.343Z,58.91
2019-06-08T02:08:02.526Z,58.92
2019-06-08T02:08:39.161Z,59.06
2019-06-08T02:09:15.534Z,59.19
2019-06-08T02:09:51.587Z,59.16
2019-06-08T02:10:28.998Z,59.32
2019-06-08T02:11:05.477Z,59.68
2019-06-08T02:11:41.489Z,59.66
2019-06-08T02:12:17.342Z,59.72
2019-06-08T02:12:54.307Z,59.63
2019-06-08T02:13:31.028Z,59.88
2019-06-08T02:14:06.963Z,59.69
2019-06-08T02:14:43.105Z,59.69
2019-06-08T02:15:19.736Z,59.64
2019-06-08T02:15:55.801Z,59.66
2019-06-08T02:16:31.883Z,60.00
2019-06-08T02:17:07.910Z,60.08
2019-06-08T02:17:43.348Z,60.28
2019-06-08T02:18:35.111Z,60.22
2019-06-08T02:18:58.272Z,59.93
2019-06-08T02:19:34.831Z,59.88
2019-06-08T02:20:12.176Z,59.78
2019-06-08T02:20:49.192Z,59.79
2019-06-08T02:21:25.062Z,59.79
2019-06-08T02:22:02.091Z,59.71
2019-06-08T02:22:39.487Z,59.71
2019-06-08T02:23:15.023Z,59.55
2019-06-08T02:23:51.066Z,59.59
2019-06-08T02:24:27.245Z,59.73
2019-06-08T02:25:02.754Z,59.84
2019-06-08T02:25:39.670Z,59.39
2019-06-08T02:26:16.666Z,59.36
2019-06-08T02:26:52.125Z,59.48
2019-06-08T02:27:29.270Z,58.98
2019-06-08T02:28:05.950Z,58.95
2019-06-08T02:28:41.970Z,59.33
2019-06-08T02:29:18.672Z,59.17
2019-06-08T02:29:55.830Z,59.19
2019-06-08T02:30:36.063Z,59.01
2019-06-08T02:31:11.862Z,59.23
2019-06-08T02:31:48.522Z,59.10
2019-06-08T02:32:23.934Z,59.10
2019-06-08T02:33:00.606Z,59.06
2019-06-08T02:33:37.309Z,58.99
2019-06-08T02:34:13.303Z,58.95
2019-06-08T02:34:49.874Z,58.96
2019-06-08T02:35:27.903Z,59.33
2019-06-08T02:36:04.614Z,58.71
2019-06-08T02:36:40.821Z,58.92
2019-06-08T02:37:17.553Z,58.99
2019-06-08T02:37:53.651Z,59.06
2019-06-08T02:38:31.941Z,59.13
2019-06-08T02:39:09.423Z,59.21
2019-06-08T02:39:45.488Z,59.18
2019-06-08T02:40:21.718Z,59.49
2019-06-08T02:40:58.621Z,59.27
2019-06-08T02:41:37.401Z,59.07
2019-06-08T02:42:15.181Z,59.20
2019-06-08T02:42:52.512Z,59.21
2019-06-08T02:43:29.017Z,59.30
2019-06-08T02:44:06.805Z,59.29
2019-06-08T02:44:43.483Z,59.18
2019-06-08T02:45:20.940Z,59.28
2019-06-08T02:45:58.092Z,59.04
2019-06-08T02:46:35.962Z,58.92
2019-06-08T02:47:16.189Z,59.15
2019-06-08T02:47:50.785Z,59.33
2019-06-08T02:48:29.284Z,59.00
2019-06-08T02:49:06.075Z,58.82
2019-06-08T02:49:42.164Z,58.81
2019-06-08T02:50:22.255Z,59.01
2019-06-08T02:50:58.441Z,59.09
2019-06-08T02:51:38.064Z,59.11
2019-06-08T02:52:15.819Z,59.05
2019-06-08T02:52:53.350Z,59.33
2019-06-08T02:53:32.107Z,59.62
2019-06-08T02:54:07.899Z,59.87
2019-06-08T02:54:44.878Z,59.79
2019-06-08T02:55:21.243Z,59.99
2019-06-08T02:55:57.342Z,60.00
2019-06-08T02:56:36.744Z,59.93
2019-06-08T02:57:15.008Z,60.13
2019-06-08T02:57:52.883Z,59.66
2019-06-08T02:58:31.110Z,59.99
2019-06-08T02:59:07.379Z,60.42
2019-06-08T02:59:44.492Z,60.65
2019-06-08T03:00:20.931Z,60.86
2019-06-08T03:00:57.557Z,60.98
2019-06-08T03:01:37.918Z,60.89
2019-06-08T03:02:15.286Z,61.15
2019-06-08T03:02:53.120Z,61.38
2019-06-08T03:03:31.755Z,61.41
2019-06-08T03:04:08.212Z,61.26
2019-06-08T03:04:44.863Z,61.43
2019-06-08T03:05:21.001Z,61.65
2019-06-08T03:06:00.416Z,61.59
2019-06-08T03:06:41.180Z,61.47
2019-06-08T03:07:19.435Z,61.57
2019-06-08T03:07:56.551Z,59.90
2019-06-08T03:08:40.910Z,58.42
2019-06-08T03:09:17.448Z,57.73
2019-06-08T03:09:55.955Z,57.45
2019-06-08T03:10:35.086Z,57.44
2019-06-08T03:11:11.210Z,57.50
2019-06-08T03:11:49.563Z,57.58
2019-06-08T03:12:28.802Z,57.45
2019-06-08T03:13:06.934Z,57.16
2019-06-08T03:13:44.715Z,56.77
2019-06-08T03:14:22.882Z,56.15
2019-06-08T03:15:01.644Z,55.72
2019-06-08T03:15:38.609Z,55.63
2019-06-08T03:16:15.416Z,55.84
2019-06-08T03:16:51.552Z,55.69
2019-06-08T03:17:27.115Z,54.86
2019-06-08T03:18:03.315Z,54.63
2019-06-08T03:18:40.195Z,54.58
2019-06-08T03:19:22.167Z,54.34
2019-06-08T03:19:55.485Z,53.11
2019-06-08T03:20:33.486Z,52.88
2019-06-08T03:21:09.720Z,53.07
2019-06-08T03:21:45.766Z,53.24
2019-06-08T03:22:22.397Z,53.05
2019-06-08T03:22:58.836Z,52.70
2019-06-08T03:23:36.247Z,52.65
2019-06-08T03:24:12.493Z,52.31
2019-06-08T03:24:48.375Z,52.06
2019-06-08T03:25:24.542Z,52.06
2019-06-08T03:26:00.870Z,51.90
2019-06-08T03:26:37.137Z,51.97
2019-06-08T03:27:14.410Z,51.62
2019-06-08T03:27:50.437Z,51.60
2019-06-08T03:28:26.622Z,51.37
2019-06-08T03:29:03.397Z,51.44
2019-06-08T03:29:41.561Z,51.41
2019-06-08T03:30:19.629Z,51.41
2019-06-08T03:30:57.028Z,51.53
2019-06-08T03:31:38.437Z,51.73
2019-06-08T03:32:12.254Z,51.60
2019-06-08T03:32:55.536Z,51.60
2019-06-08T03:33:27.077Z,51.33
2019-06-08T03:34:02.597Z,51.63
2019-06-08T03:34:46.816Z,51.38
2019-06-08T03:35:17.019Z,51.28
2019-06-08T03:35:57.787Z,51.50
2019-06-08T03:36:30.320Z,51.51
2019-06-08T03:37:07.404Z,51.32
2019-06-08T03:37:44.574Z,51.37
2019-06-08T03:38:21.022Z,51.22
2019-06-08T03:38:57.743Z,51.26
2019-06-08T03:39:34.962Z,51.21
2019-06-08T03:40:11.419Z,51.06
2019-06-08T03:40:47.886Z,50.92
2019-06-08T03:41:23.374Z,50.36
2019-06-08T03:42:00.287Z,50.22
2019-06-08T03:42:36.314Z,50.47
2019-06-08T03:43:11.766Z,50.01
2019-06-08T03:43:48.447Z,49.76
2019-06-08T03:44:24.564Z,49.72
2019-06-08T03:45:00.715Z,49.70
2019-06-08T03:45:38.133Z,49.82
2019-06-08T03:46:14.946Z,49.78
2019-06-08T03:46:50.385Z,49.86
2019-06-08T03:47:26.510Z,49.91
2019-06-08T03:48:02.561Z,49.82
2019-06-08T03:48:40.066Z,49.69
2019-06-08T03:49:15.765Z,49.49
2019-06-08T03:49:57.100Z,49.62
2019-06-08T03:50:29.589Z,49.81
2019-06-08T03:51:06.374Z,49.70
2019-06-08T03:51:46.234Z,49.87
2019-06-08T03:52:20.144Z,49.70
2019-06-08T03:52:56.934Z,49.94
2019-06-08T03:53:33.031Z,50.05
2019-06-08T03:54:09.136Z,50.04
2019-06-08T03:54:47.078Z,50.05
2019-06-08T03:55:23.186Z,49.86
2019-06-08T03:55:59.263Z,50.36
2019-06-08T03:56:38.030Z,50.29
2019-06-08T03:57:14.684Z,50.07
2019-06-08T03:57:50.148Z,50.10
2019-06-08T03:58:27.066Z,50.25
2019-06-08T03:59:03.241Z,50.26
2019-06-08T03:59:40.791Z,50.44
2019-06-08T04:00:16.451Z,50.65
2019-06-08T04:00:52.497Z,50.76
2019-06-08T04:01:28.019Z,50.76
2019-06-08T04:02:04.120Z,50.58
2019-06-08T04:02:42.149Z,50.53
2019-06-08T04:03:17.618Z,50.83
2019-06-08T04:03:54.147Z,50.93
2019-06-08T04:04:30.641Z,50.90
2019-06-08T04:05:06.396Z,50.93
2019-06-08T04:05:44.251Z,51.10
2019-06-08T04:06:20.571Z,50.85
2019-06-08T04:06:57.090Z,50.74
2019-06-08T04:07:33.589Z,50.85
2019-06-08T04:08:09.657Z,50.54
2019-06-08T04:08:47.232Z,50.27
2019-06-08T04:09:22.841Z,50.50
2019-06-08T04:09:58.955Z,50.56
2019-06-08T04:10:35.103Z,50.99
2019-06-08T04:11:11.575Z,51.06
2019-06-08T04:11:47.660Z,51.01
2019-06-08T04:12:23.155Z,50.96
2019-06-08T04:13:00.018Z,51.01
2019-06-08T04:13:37.685Z,50.74
2019-06-08T04:14:14.386Z,51.27
2019-06-08T04:14:51.001Z,51.14
2019-06-08T04:15:27.110Z,51.23
2019-06-08T04:16:02.679Z,51.24
2019-06-08T04:16:40.244Z,51.05
2019-06-08T04:17:18.742Z,51.04
2019-06-08T04:17:54.253Z,51.01
2019-06-08T04:18:30.847Z,51.05
2019-06-08T04:19:06.896Z,51.05
2019-06-08T04:20:02.789Z,51.04
2019-06-08T04:20:20.732Z,51.17
2019-06-08T04:20:57.294Z,51.26
2019-06-08T04:21:32.807Z,51.30
2019-06-08T04:22:08.890Z,51.19
2019-06-08T04:22:47.729Z,51.23
2019-06-08T04:23:23.615Z,51.50
2019-06-08T04:24:00.607Z,51.50
2019-06-08T04:24:38.023Z,51.44
2019-06-08T04:25:14.332Z,51.57
2019-06-08T04:25:50.705Z,51.47
2019-06-08T04:26:26.909Z,51.51
2019-06-08T04:27:02.473Z,51.72
2019-06-08T04:27:38.937Z,51.77
2019-06-08T04:28:16.825Z,51.83
2019-06-08T04:28:52.286Z,51.84
2019-06-08T04:29:28.836Z,51.92
2019-06-08T04:30:05.405Z,51.96
2019-06-08T04:30:41.476Z,52.13
2019-06-08T04:31:18.849Z,52.22
2019-06-08T04:31:54.958Z,52.66
2019-06-08T04:32:30.791Z,52.46
2019-06-08T04:33:06.855Z,52.12
2019-06-08T04:33:44.287Z,52.20
2019-06-08T04:34:20.459Z,52.27
2019-06-08T04:34:56.823Z,52.03
2019-06-08T04:35:32.915Z,52.26
2019-06-08T04:36:09.162Z,52.60
2019-06-08T04:36:46.413Z,52.65
2019-06-08T04:37:23.254Z,52.62
2019-06-08T04:37:59.231Z,52.50
2019-06-08T04:38:35.339Z,52.33
2019-06-08T04:39:11.739Z,52.11
2019-06-08T04:39:47.311Z,52.08
2019-06-08T04:40:23.801Z,52.07
2019-06-08T04:40:59.955Z,52.00
2019-06-08T04:41:35.790Z,52.38
2019-06-08T04:42:11.883Z,52.19
2019-06-08T04:42:49.372Z,52.19
2019-06-08T04:43:25.889Z,52.46
2019-06-08T04:44:02.064Z,52.40
2019-06-08T04:44:38.505Z,52.68
2019-06-08T04:45:14.787Z,52.77
2019-06-08T04:45:50.890Z,52.75
2019-06-08T04:46:28.439Z,52.54
2019-06-08T04:47:04.503Z,52.48
2019-06-08T04:47:41.495Z,52.58
2019-06-08T04:48:18.399Z,52.78
2019-06-08T04:48:54.123Z,52.87
2019-06-08T04:49:30.300Z,52.82
2019-06-08T04:50:21.765Z,52.98
2019-06-08T04:50:45.451Z,53.00
2019-06-08T04:51:22.155Z,52.92
2019-06-08T04:51:58.784Z,53.06
2019-06-08T04:52:34.823Z,53.20
2019-06-08T04:53:10.877Z,53.14
2019-06-08T04:53:49.335Z,52.91
2019-06-08T04:54:25.113Z,52.59
2019-06-08T04:55:01.368Z,52.70
2019-06-08T04:55:38.803Z,52.87
2019-06-08T04:56:14.363Z,53.00
2019-06-08T04:56:50.409Z,52.75
2019-06-08T04:57:26.985Z,52.57
2019-06-08T04:58:02.935Z,52.67
2019-06-08T04:58:39.880Z,52.89
2019-06-08T04:59:16.747Z,52.94
2019-06-08T04:59:52.215Z,52.77
2019-06-08T05:00:31.278Z,52.85
2019-06-08T05:01:06.429Z,52.81
2019-06-08T05:01:42.957Z,52.68
2019-06-08T05:02:19.898Z,52.64
2019-06-08T05:02:56.147Z,52.59
2019-06-08T05:03:31.600Z,52.43
2019-06-08T05:04:08.451Z,52.15
2019-06-08T05:04:45.313Z,52.27
2019-06-08T05:05:20.814Z,52.12
2019-06-08T05:05:56.963Z,51.92
2019-06-08T05:06:33.978Z,51.95
2019-06-08T05:07:09.798Z,51.63
2019-06-08T05:07:48.065Z,51.25
2019-06-08T05:08:24.500Z,51.35
2019-06-08T05:09:00.437Z,51.36
2019-06-08T05:09:36.503Z,51.01
2019-06-08T05:10:12.851Z,51.17
2019-06-08T05:10:49.722Z,51.17
2019-06-08T05:11:25.962Z,50.61
2019-06-08T05:12:03.485Z,50.90
2019-06-08T05:12:41.264Z,50.67
2019-06-08T05:13:18.350Z,50.88
2019-06-08T05:13:54.417Z,51.23
2019-06-08T05:14:29.991Z,50.92
2019-06-08T05:15:06.969Z,50.94
2019-06-08T05:15:43.311Z,51.18
2019-06-08T05:16:19.445Z,51.06
2019-06-08T05:16:55.557Z,50.88
2019-06-08T05:17:32.527Z,50.87
2019-06-08T05:18:08.021Z,50.77
2019-06-08T05:18:45.273Z,50.65
2019-06-08T05:19:21.631Z,50.71
2019-06-08T05:19:57.880Z,50.57
2019-06-08T05:20:38.787Z,50.89
2019-06-08T05:21:13.135Z,50.64
2019-06-08T05:21:49.848Z,50.76
2019-06-08T05:22:26.594Z,50.91
2019-06-08T05:23:03.372Z,51.25
2019-06-08T05:23:39.431Z,50.96
2019-06-08T05:24:16.133Z,50.71
2019-06-08T05:24:53.265Z,50.93
2019-06-08T05:25:29.776Z,50.96
2019-06-08T05:26:06.061Z,51.35
2019-06-08T05:26:43.628Z,51.14
2019-06-08T05:27:19.836Z,51.21
2019-06-08T05:27:56.350Z,50.89
2019-06-08T05:28:33.031Z,50.67
2019-06-08T05:29:09.141Z,50.37
2019-06-08T05:29:45.433Z,50.26
2019-06-08T05:30:21.956Z,50.42
2019-06-08T05:30:58.172Z,50.47
2019-06-08T05:31:34.920Z,50.29
2019-06-08T05:32:11.382Z,50.67
2019-06-08T05:32:47.611Z,50.53
2019-06-08T05:33:24.258Z,50.67
2019-06-08T05:34:00.991Z,50.16
2019-06-08T05:34:37.288Z,50.29
2019-06-08T05:35:14.189Z,50.89
2019-06-08T05:35:51.010Z,50.99
2019-06-08T05:36:27.126Z,51.16
2019-06-08T05:37:03.575Z,50.80
2019-06-08T05:37:39.622Z,50.86
2019-06-08T05:38:16.026Z,50.88
2019-06-08T05:38:52.132Z,50.63
2019-06-08T05:39:28.374Z,50.40
2019-06-08T05:40:04.346Z,50.63
2019-06-08T05:40:41.507Z,50.93
2019-06-08T05:41:17.738Z,50.85
2019-06-08T05:41:53.273Z,50.85
2019-06-08T05:42:29.337Z,50.66
2019-06-08T05:43:06.146Z,50.42
2019-06-08T05:43:41.710Z,50.32
2019-06-08T05:44:17.707Z,50.48
2019-06-08T05:44:54.692Z,50.73
2019-06-08T05:45:30.826Z,50.63
2019-06-08T05:46:06.887Z,50.22
2019-06-08T05:46:43.713Z,49.58
2019-06-08T05:47:19.366Z,49.43
2019-06-08T05:47:55.864Z,49.73
2019-06-08T05:48:32.571Z,49.49
2019-06-08T05:49:08.036Z,49.33
2019-06-08T05:49:44.074Z,49.61
2019-06-08T05:50:20.686Z,49.57
2019-06-08T05:51:03.934Z,49.43
2019-06-08T05:51:35.434Z,49.42
2019-06-08T05:52:11.791Z,49.20
2019-06-08T05:52:48.167Z,49.10
2019-06-08T05:53:24.832Z,48.81
2019-06-08T05:54:03.021Z,48.94
2019-06-08T05:54:39.855Z,48.90
2019-06-08T05:55:17.217Z,49.05
2019-06-08T05:55:53.404Z,48.92
2019-06-08T05:56:29.915Z,48.93
2019-06-08T05:57:06.101Z,48.81
2019-06-08T05:57:44.148Z,48.61
2019-06-08T05:58:19.732Z,48.69
2019-06-08T05:58:55.821Z,48.26
2019-06-08T05:59:31.918Z,48.51
2019-06-08T06:00:09.453Z,48.52
2019-06-08T06:00:46.242Z,48.13
2019-06-08T06:01:23.272Z,47.99
2019-06-08T06:01:58.805Z,47.78
2019-06-08T06:02:35.549Z,47.63
2019-06-08T06:03:12.513Z,47.03
2019-06-08T06:03:48.808Z,46.61
2019-06-08T06:04:25.744Z,46.45
2019-06-08T06:05:01.961Z,46.39
2019-06-08T06:05:37.396Z,45.58
2019-06-08T06:06:14.421Z,44.49
2019-06-08T06:06:51.507Z,44.89
2019-06-08T06:07:28.329Z,44.27
2019-06-08T06:08:18.036Z,44.79
2019-06-08T06:08:44.672Z,44.89
2019-06-08T06:09:20.777Z,44.95
2019-06-08T06:09:57.196Z,44.47
2019-06-08T06:10:33.671Z,44.36
2019-06-08T06:11:10.246Z,44.63
2019-06-08T06:11:46.844Z,44.82
2019-06-08T06:12:23.031Z,44.88
2019-06-08T06:12:59.536Z,44.71
2019-06-08T06:13:36.312Z,44.74
2019-06-08T06:14:13.052Z,44.34
2019-06-08T06:14:49.111Z,44.71
2019-06-08T06:15:26.324Z,44.79
2019-06-08T06:16:03.560Z,44.66
2019-06-08T06:16:40.849Z,44.57
2019-06-08T06:17:17.931Z,44.74
2019-06-08T06:17:54.944Z,44.33
2019-06-08T06:18:30.456Z,44.69
2019-06-08T06:19:06.600Z,44.91
2019-06-08T06:19:43.242Z,44.88
2019-06-08T06:20:19.406Z,44.89
2019-06-08T06:21:09.907Z,44.88
2019-06-08T06:21:33.974Z,45.10
2019-06-08T06:22:10.387Z,45.02
2019-06-08T06:22:47.729Z,44.72
2019-06-08T06:23:24.146Z,45.14
2019-06-08T06:23:59.753Z,45.03
2019-06-08T06:24:36.741Z,45.16
2019-06-08T06:25:13.386Z,45.11
2019-06-08T06:25:49.581Z,45.01
2019-06-08T06:26:26.425Z,44.94
2019-06-08T06:27:02.519Z,44.92
2019-06-08T06:27:37.967Z,44.85
2019-06-08T06:28:14.020Z,45.02
2019-06-08T06:28:51.673Z,45.33
2019-06-08T06:29:27.398Z,45.06
2019-06-08T06:30:03.989Z,45.54
2019-06-08T06:30:41.526Z,45.75
2019-06-08T06:31:17.517Z,45.59
2019-06-08T06:31:53.564Z,45.68
2019-06-08T06:32:30.182Z,45.67
2019-06-08T06:33:06.303Z,45.66
2019-06-08T06:33:43.838Z,45.55
2019-06-08T06:34:20.408Z,45.65
2019-06-08T06:34:56.824Z,45.68
2019-06-08T06:35:32.978Z,45.54
2019-06-08T06:36:09.145Z,44.98
2019-06-08T06:36:45.860Z,45.55
2019-06-08T06:37:22.529Z,45.68
2019-06-08T06:37:58.437Z,45.70
2019-06-08T06:38:35.262Z,45.65
2019-06-08T06:39:12.043Z,46.20
2019-06-08T06:39:49.960Z,46.10
2019-06-08T06:40:26.096Z,46.34
2019-06-08T06:41:03.401Z,46.19
2019-06-08T06:41:39.458Z,46.03
2019-06-08T06:42:14.936Z,45.53
2019-06-08T06:42:52.355Z,45.75
2019-06-08T06:43:29.199Z,45.80
2019-06-08T06:44:05.965Z,45.61
2019-06-08T06:44:44.899Z,46.17
2019-06-08T06:45:20.736Z,46.13
2019-06-08T06:45:56.239Z,46.29
2019-06-08T06:46:32.363Z,46.23
2019-06-08T06:47:09.149Z,46.29
2019-06-08T06:47:46.403Z,46.56
2019-06-08T06:48:23.585Z,45.99
2019-06-08T06:49:00.517Z,46.05
2019-06-08T06:49:37.341Z,46.17
2019-06-08T06:50:14.305Z,46.43
2019-06-08T06:50:50.951Z,46.39
2019-06-08T06:51:27.002Z,45.86
2019-06-08T06:52:04.293Z,45.58
2019-06-08T06:52:40.341Z,45.97
2019-06-08T06:53:16.727Z,46.08
2019-06-08T06:53:53.596Z,46.07
2019-06-08T06:54:30.678Z,46.04
2019-06-08T06:55:06.572Z,45.76
2019-06-08T06:55:42.858Z,45.80
2019-06-08T06:56:19.593Z,45.98
2019-06-08T06:56:55.542Z,46.03
2019-06-08T06:57:36.018Z,46.03
2019-06-08T06:58:10.532Z,46.08
2019-06-08T06:58:45.983Z,46.22
2019-06-08T06:59:22.709Z,46.28
2019-06-08T06:59:58.924Z,46.45
2019-06-08T07:00:35.439Z,46.32
2019-06-08T07:01:12.104Z,46.88
2019-06-08T07:01:52.622Z,47.06
2019-06-08T07:02:27.502Z,46.68
2019-06-08T07:03:04.327Z,47.19
2019-06-08T07:03:40.676Z,47.41
2019-06-08T07:04:17.272Z,47.45
2019-06-08T07:04:54.438Z,47.30
2019-06-08T07:05:30.648Z,47.23
2019-06-08T07:06:06.858Z,47.12
2019-06-08T07:06:44.019Z,47.13
2019-06-08T07:07:20.200Z,47.31
2019-06-08T07:07:55.675Z,47.08
2019-06-08T07:08:32.041Z,46.72
2019-06-08T07:09:08.601Z,46.44
2019-06-08T07:09:44.431Z,46.55
2019-06-08T07:10:21.415Z,46.43
2019-06-08T07:10:57.678Z,46.35
2019-06-08T07:11:33.228Z,46.48
2019-06-08T07:12:09.860Z,46.44
2019-06-08T07:12:46.583Z,46.44
2019-06-08T07:13:22.768Z,46.66
2019-06-08T07:13:58.855Z,46.49
2019-06-08T07:14:35.298Z,46.43
2019-06-08T07:15:11.753Z,46.70
2019-06-08T07:15:51.530Z,46.76
2019-06-08T07:16:26.339Z,47.02
2019-06-08T07:17:02.470Z,46.60
2019-06-08T07:17:39.118Z,46.68
2019-06-08T07:18:15.497Z,46.47
2019-06-08T07:18:52.412Z,46.48
2019-06-08T07:19:29.251Z,46.14
2019-06-08T07:20:07.371Z,46.72
2019-06-08T07:20:43.343Z,46.66
2019-06-08T07:21:19.404Z,46.67
2019-06-08T07:21:56.394Z,46.22
2019-06-08T07:22:31.918Z,46.02
2019-06-08T07:23:08.354Z,45.99
2019-06-08T07:23:44.438Z,46.01
2019-06-08T07:24:19.896Z,46.13
2019-06-08T07:24:56.272Z,46.17
2019-06-08T07:25:33.287Z,45.76
2019-06-08T07:26:09.760Z,46.24
2019-06-08T07:26:46.686Z,46.14
2019-06-08T07:27:23.426Z,46.16
2019-06-08T07:27:59.492Z,46.04
2019-06-08T07:28:36.151Z,45.97
2019-06-08T07:29:12.812Z,46.31
2019-06-08T07:29:48.822Z,46.36
2019-06-08T07:30:24.901Z,46.63
2019-06-08T07:31:01.542Z,46.81
2019-06-08T07:31:37.084Z,46.46
2019-06-08T07:32:13.153Z,46.23
2019-06-08T07:32:50.949Z,46.26
2019-06-08T07:33:26.684Z,46.25
2019-06-08T07:34:02.809Z,46.31
2019-06-08T07:34:41.173Z,46.53
2019-06-08T07:35:16.008Z,46.14
2019-06-08T07:35:53.266Z,46.20
2019-06-08T07:36:30.047Z,46.32
2019-06-08T07:37:05.518Z,46.28
2019-06-08T07:37:41.584Z,46.15
2019-06-08T07:38:17.627Z,45.98
2019-06-08T07:38:53.469Z,45.79
2019-06-08T07:39:29.591Z,45.77
2019-06-08T07:40:06.326Z,45.93
2019-06-08T07:40:41.786Z,45.95
2019-06-08T07:41:17.856Z,45.86
2019-06-08T07:41:55.863Z,45.85
2019-06-08T07:42:32.658Z,45.86
2019-06-08T07:43:09.446Z,45.58
2019-06-08T07:43:46.078Z,45.15
2019-06-08T07:44:22.536Z,45.21
2019-06-08T07:45:00.386Z,45.29
2019-06-08T07:45:37.200Z,45.29
2019-06-08T07:46:13.256Z,45.32
2019-06-08T07:46:49.441Z,45.81
2019-06-08T07:47:26.426Z,46.00
2019-06-08T07:48:02.371Z,45.93
2019-06-08T07:48:38.459Z,46.15
2019-06-08T07:49:14.490Z,45.73
2019-06-08T07:49:51.109Z,45.54
2019-06-08T07:50:27.260Z,46.08
2019-06-08T07:51:03.427Z,46.01
2019-06-08T07:51:40.231Z,46.02